Afton, Iowa
Current Conditions -  °F | °C
As of 1:55 PM on Friday 21 Nov 2014 (Local Time) from KCSQ Reporting Station
Overcast Overcast  
Wind Chill: 27°   Ceiling: 1300
Heat Index: 36°   Visibility: 9mi
Dew Point: 25°   Wind: 14mph
Humidity: 65%   Direction: 150°SSE
Pressure: 30.12"   Gusts: 21mph
Location:  41.03°N, 94.2°W
Report Text: KCSQ 211955Z AUTO 15012G18KT 9SM OVC013 02/M04 A3012 RMK AO2
Loading
Personal Weather Stations






























Interactive Weather Map New forecast layout! Learn more

10-Day Weather Forecast

Advertisements
Track Severe Weather on mobile